Time;durP1;ratioP1;P1;durP2;ratioP2;P2;SDS_P1;SDS_P2;PMS_P1;PMS_P2;Temp;Humidity;BMP_temperature;BMP_pressure;BME280_temperature;BME280_humidity;BME280_pressure;Samples;Min_cycle;Max_cycle;Signal;HPM_P1;HPM_P2
2022/11/13 00:02:25;;;;;;;71.57;42.70;;;9.10;99.90;;;;;;10440154;28;20226;-92
2022/11/13 00:07:46;;;;;;;69.60;40.83;;;9.20;99.90;;;;;;10439275;28;20246;-92
2022/11/13 00:13:07;;;;;;;77.17;43.77;;;9.20;99.90;;;;;;10450373;28;20254;-92
2022/11/13 00:18:29;;;;;;;75.80;43.80;;;9.10;99.90;;;;;;10436954;28;20198;-91
2022/11/13 00:23:51;;;;;;;88.07;45.27;;;9.10;99.90;;;;;;10438482;28;20250;-91
2022/11/13 00:29:11;;;;;;;77.03;44.80;;;9.20;99.90;;;;;;10455992;28;20660;-91
2022/11/13 00:34:32;;;;;;;83.87;45.23;;;9.20;99.90;;;;;;10468733;28;20644;-91
2022/11/13 00:40:07;;;;;;;78.90;44.33;;;9.20;99.90;;;;;;10421360;28;20235;-91
2022/11/13 00:45:28;;;;;;;86.50;46.70;;;9.20;99.90;;;;;;10416561;28;20633;-91
2022/11/13 00:50:49;;;;;;;96.20;49.60;;;9.10;99.90;;;;;;10449168;28;20241;-91
2022/11/13 00:56:11;;;;;;;85.33;48.53;;;9.10;99.90;;;;;;10442804;28;20601;-91
2022/11/13 01:01:32;;;;;;;87.43;49.70;;;9.10;99.90;;;;;;10459608;28;20238;-91
2022/11/13 01:06:54;;;;;;;99.93;51.37;;;9.10;99.90;;;;;;10457117;28;20535;-91
2022/11/13 01:12:15;;;;;;;90.50;49.70;;;9.20;99.90;;;;;;10440754;28;20257;-91
2022/11/13 01:17:36;;;;;;;92.60;53.80;;;9.20;99.90;;;;;;10457694;28;20199;-91
2022/11/13 01:22:57;;;;;;;87.93;51.07;;;9.20;99.90;;;;;;10464469;28;20687;-91
2022/11/13 01:28:18;;;;;;;87.80;52.00;;;9.20;99.90;;;;;;10469046;28;20931;-91
2022/11/13 01:33:39;;;;;;;88.53;50.73;;;9.10;99.90;;;;;;10457269;28;20258;-91
2022/11/13 01:39:00;;;;;;;86.50;50.30;;;9.20;99.90;;;;;;10457033;28;20211;-92
2022/11/13 01:44:21;;;;;;;98.73;53.17;;;9.20;99.90;;;;;;10455485;28;20672;-91
2022/11/13 01:49:44;;;;;;;87.23;49.27;;;9.20;99.90;;;;;;10452859;28;20234;-91
2022/11/13 01:55:14;;;;;;;86.10;49.87;;;9.20;99.90;;;;;;10440515;28;20640;-92
2022/11/13 02:00:36;;;;;;;84.93;47.67;;;9.20;99.90;;;;;;10442670;28;20226;-92
2022/11/13 02:05:57;;;;;;;81.50;46.67;;;9.20;99.90;;;;;;10436789;28;20613;-92
2022/11/13 02:11:19;;;;;;;89.83;48.57;;;9.20;99.90;;;;;;10441276;28;20246;-92
2022/11/13 02:16:43;;;;;;;90.13;48.87;;;9.20;99.90;;;;;;10440366;28;20680;-92
2022/11/13 02:22:15;;;;;;;81.47;44.47;;;9.20;99.90;;;;;;10439882;28;20242;-92
2022/11/13 02:27:48;;;;;;;86.00;47.47;;;9.20;99.90;;;;;;10455320;28;20203;-91
2022/11/13 02:33:24;;;;;;;73.67;42.53;;;9.20;99.90;;;;;;10457424;28;20727;-91
2022/11/13 02:38:47;;;;;;;73.40;42.87;;;9.10;99.90;;;;;;10444300;28;20199;-92
2022/11/13 02:44:08;;;;;;;78.67;44.33;;;9.10;99.90;;;;;;10438465;28;20796;-92
2022/11/13 02:49:28;;;;;;;75.80;43.07;;;9.20;99.90;;;;;;10416766;28;20200;-91
2022/11/13 02:54:50;;;;;;;68.20;40.87;;;9.10;99.90;;;;;;10396591;28;20255;-92
2022/11/13 03:00:12;;;;;;;75.47;40.87;;;9.10;99.90;;;;;;10424531;28;20234;-92
2022/11/13 03:05:34;;;;;;;65.47;38.03;;;9.00;99.90;;;;;;10463650;28;20238;-92
2022/11/13 03:10:55;;;;;;;70.80;40.00;;;9.10;99.90;;;;;;10452830;28;20246;-92
2022/11/13 03:16:17;;;;;;;73.60;40.23;;;9.10;99.90;;;;;;10458595;28;20254;-92
2022/11/13 03:21:38;;;;;;;67.47;41.70;;;9.10;99.90;;;;;;10455344;28;20242;-92
2022/11/13 03:26:59;;;;;;;69.57;41.03;;;9.10;99.90;;;;;;10438230;28;20238;-91
2022/11/13 03:32:20;;;;;;;70.80;41.30;;;9.10;99.90;;;;;;10420432;28;20255;-92
2022/11/13 03:37:41;;;;;;;75.40;40.10;;;9.10;99.90;;;;;;10421053;28;20235;-92
2022/11/13 03:43:02;;;;;;;69.63;43.17;;;9.10;99.90;;;;;;10399819;28;20676;-92
2022/11/13 03:48:23;;;;;;;62.20;37.47;;;9.10;99.90;;;;;;10435992;28;20240;-92
2022/11/13 03:53:43;;;;;;;59.93;37.00;;;9.10;99.90;;;;;;10450015;28;20262;-92
2022/11/13 03:59:05;;;;;;;64.77;36.87;;;9.10;99.90;;;;;;10439415;28;20731;-91
2022/11/13 04:04:25;;;;;;;67.80;38.70;;;9.10;99.90;;;;;;10441014;28;20613;-91
2022/11/13 04:09:46;;;;;;;69.17;37.73;;;9.10;99.90;;;;;;10450966;28;20210;-91
2022/11/13 04:15:08;;;;;;;62.27;35.70;;;9.10;99.90;;;;;;10456077;28;20250;-91
2022/11/13 04:20:29;;;;;;;59.83;34.13;;;9.10;99.90;;;;;;10459516;28;20234;-92
2022/11/13 04:25:50;;;;;;;56.10;32.87;;;9.10;99.90;;;;;;10455247;28;20238;-92
2022/11/13 04:31:12;;;;;;;50.20;29.30;;;9.00;99.90;;;;;;10451860;28;20203;-91
2022/11/13 04:36:33;;;;;;;63.23;32.30;;;9.10;99.90;;;;;;10435280;28;20728;-91
2022/11/13 04:47:33;;;;;;;68.80;37.20;;;9.20;99.90;;;;;;10452700;28;20249;-91
2022/11/13 04:52:54;;;;;;;75.30;40.30;;;9.10;99.90;;;;;;10449155;28;20245;-92
2022/11/13 04:58:15;;;;;;;71.17;39.17;;;9.10;99.90;;;;;;10436919;28;20266;-92
2022/11/13 05:03:36;;;;;;;74.90;39.30;;;9.10;99.90;;;;;;10460237;28;20203;-92
2022/11/13 05:08:57;;;;;;;60.60;35.23;;;9.10;99.90;;;;;;10450912;28;20222;-91
2022/11/13 05:14:18;;;;;;;58.73;31.57;;;9.00;99.90;;;;;;10453788;28;20708;-91
2022/11/13 05:19:39;;;;;;;56.50;29.70;;;9.00;99.90;;;;;;10457050;28;20190;-91
2022/11/13 05:25:00;;;;;;;51.63;27.20;;;9.00;99.90;;;;;;10455031;28;20599;-92
2022/11/13 05:30:21;;;;;;;44.33;23.40;;;9.00;99.90;;;;;;10457682;28;20211;-91
2022/11/13 05:35:42;;;;;;;43.53;22.03;;;9.00;99.90;;;;;;10454059;28;20258;-91
2022/11/13 05:41:06;;;;;;;36.90;21.73;;;8.90;99.90;;;;;;10445803;28;20207;-91
2022/11/13 05:46:28;;;;;;;38.20;22.47;;;8.90;99.90;;;;;;10442635;28;20541;-92
2022/11/13 05:51:49;;;;;;;42.20;21.80;;;8.90;99.90;;;;;;10441118;28;20234;-92
2022/11/13 05:57:10;;;;;;;41.93;24.50;;;8.90;99.90;;;;;;10440738;28;20227;-92
2022/11/13 06:02:31;;;;;;;42.87;23.03;;;8.90;99.90;;;;;;10458056;28;20207;-92
2022/11/13 06:07:52;;;;;;;36.03;21.60;;;8.90;99.90;;;;;;10439141;28;20211;-91
2022/11/13 06:13:13;;;;;;;37.73;21.97;;;8.80;99.90;;;;;;10465976;28;20258;-91
2022/11/13 06:18:35;;;;;;;37.23;21.77;;;8.90;99.90;;;;;;10464464;28;20238;-91
2022/11/13 06:23:57;;;;;;;35.90;21.47;;;8.90;99.90;;;;;;10454276;28;20238;-90
2022/11/13 06:29:18;;;;;;;38.20;20.97;;;8.80;99.90;;;;;;10439209;28;20235;-91
2022/11/13 06:34:39;;;;;;;41.93;22.37;;;8.90;99.90;;;;;;10439061;28;20261;-90
2022/11/13 06:40:00;;;;;;;35.57;21.20;;;8.90;99.90;;;;;;10461016;28;20246;-90
2022/11/13 06:45:21;;;;;;;39.20;24.20;;;8.90;99.90;;;;;;10439443;28;20250;-91
2022/11/13 06:50:43;;;;;;;45.90;24.83;;;8.90;99.90;;;;;;10448464;28;20238;-91
2022/11/13 06:56:09;;;;;;;46.73;29.47;;;8.90;99.90;;;;;;10456653;28;20266;-90
2022/11/13 07:01:30;;;;;;;62.83;35.00;;;8.90;99.90;;;;;;10463531;28;20238;-91
2022/11/13 07:06:51;;;;;;;46.23;25.77;;;9.20;99.90;;;;;;10447885;28;20238;-89
2022/11/13 07:12:12;;;;;;;72.53;41.87;;;9.00;99.90;;;;;;10438998;28;20211;-89
2022/11/13 07:17:33;;;;;;;51.90;26.67;;;9.00;99.90;;;;;;10441686;28;20239;-90
2022/11/13 07:22:59;;;;;;;50.43;28.23;;;9.00;99.90;;;;;;10436533;28;20239;-90
2022/11/13 07:28:20;;;;;;;46.03;26.60;;;8.90;99.90;;;;;;10439909;28;20234;-90
2022/11/13 07:33:42;;;;;;;43.17;24.70;;;8.90;99.90;;;;;;10451502;28;20250;-90
2022/11/13 07:39:03;;;;;;;39.47;23.73;;;8.90;99.90;;;;;;10425872;28;20672;-90
2022/11/13 07:44:24;;;;;;;33.27;17.40;;;8.90;99.90;;;;;;10453026;28;20242;-90
2022/11/13 07:50:05;;;;;;;30.47;17.83;;;8.90;99.90;;;;;;10463761;28;20203;-90
2022/11/13 07:55:33;;;;;;;29.27;17.50;;;8.90;99.90;;;;;;10450898;28;20258;-90
2022/11/13 08:00:54;;;;;;;29.93;16.73;;;8.90;99.90;;;;;;10457022;28;20191;-90
2022/11/13 08:06:15;;;;;;;23.80;14.20;;;8.90;99.90;;;;;;10452193;28;20711;-90
2022/11/13 08:11:36;;;;;;;32.77;20.03;;;8.80;99.90;;;;;;10453515;28;20203;-91
2022/11/13 08:16:56;;;;;;;31.40;20.43;;;8.80;99.90;;;;;;10435156;28;20627;-91
2022/11/13 08:22:17;;;;;;;21.67;13.67;;;9.20;99.90;;;;;;10406789;28;20203;-91
2022/11/13 08:27:38;;;;;;;26.70;14.30;;;9.00;99.90;;;;;;10396678;28;20720;-91
2022/11/13 08:33:01;;;;;;;25.47;12.10;;;9.00;99.90;;;;;;10439675;28;20203;-90
2022/11/13 08:38:22;;;;;;;15.83;10.07;;;9.30;99.90;;;;;;10456379;28;20207;-91
2022/11/13 08:43:44;;;;;;;20.30;10.63;;;9.60;99.90;;;;;;10462001;28;20781;-91
2022/11/13 08:49:05;;;;;;;17.73;10.50;;;9.70;99.90;;;;;;10455266;28;20683;-90
2022/11/13 08:54:26;;;;;;;16.37;10.27;;;9.40;99.90;;;;;;10442819;28;20623;-90
2022/11/13 08:59:47;;;;;;;17.40;10.43;;;9.30;99.90;;;;;;10443441;28;20616;-90
2022/11/13 09:05:08;;;;;;;19.27;11.87;;;10.00;99.90;;;;;;10456682;28;20242;-90
2022/11/13 09:10:29;;;;;;;28.27;13.37;;;9.70;99.90;;;;;;10445945;28;20695;-90
2022/11/13 09:15:50;;;;;;;23.27;12.77;;;9.70;99.90;;;;;;10461175;28;20262;-90
2022/11/13 09:21:11;;;;;;;21.27;11.73;;;9.70;99.90;;;;;;10441773;28;20234;-90
2022/11/13 09:26:34;;;;;;;19.80;10.60;;;9.70;99.90;;;;;;10456082;28;20246;-91
2022/11/13 09:31:55;;;;;;;20.30;11.70;;;10.20;99.90;;;;;;10440763;28;20696;-91
2022/11/13 09:37:16;;;;;;;22.90;15.50;;;10.50;99.90;;;;;;10449964;28;20266;-91
2022/11/13 09:42:39;;;;;;;15.00;8.37;;;;;;;;;;10425507;28;20234;-90
2022/11/13 09:48:24;;;;;;;20.03;13.47;;;11.70;99.90;;;;;;10465030;28;20239;-90
2022/11/13 09:53:45;;;;;;;16.03;9.30;;;11.90;99.90;;;;;;10465440;28;20265;-90
2022/11/13 09:59:28;;;;;;;14.20;8.37;;;11.00;99.90;;;;;;10456985;28;20238;-91
2022/11/13 10:04:57;;;;;;;23.77;15.50;;;10.70;99.90;;;;;;10438314;28;20567;-90
2022/11/13 10:10:17;;;;;;;11.07;6.80;;;11.50;99.90;;;;;;10455764;28;20248;-90
2022/11/13 10:15:43;;;;;;;14.40;8.70;;;10.70;99.90;;;;;;10453243;28;20255;-90
2022/11/13 10:21:35;;;;;;;10.50;6.80;;;11.60;99.90;;;;;;10454381;28;20240;-90
2022/11/13 10:26:58;;;;;;;11.30;7.70;;;11.20;99.90;;;;;;10457839;28;20246;-91
2022/11/13 10:32:26;;;;;;;13.70;7.63;;;11.30;99.90;;;;;;10443292;28;20246;-90
2022/11/13 10:38:22;;;;;;;13.90;8.90;;;10.90;99.90;;;;;;10433259;28;20267;-91
2022/11/13 10:43:52;;;;;;;14.47;9.93;;;11.70;99.90;;;;;;10459475;28;20236;-90
2022/11/13 10:49:16;;;;;;;16.87;12.33;;;11.00;99.90;;;;;;10449748;28;20246;-90
2022/11/13 10:54:37;;;;;;;14.47;8.70;;;11.90;99.90;;;;;;10462210;28;20271;-91
2022/11/13 10:59:59;;;;;;;22.93;15.07;;;12.00;99.90;;;;;;10444720;28;20242;-90
2022/11/13 11:05:22;;;;;;;22.03;14.87;;;12.30;99.90;;;;;;10464612;28;20242;-90
2022/11/13 11:16:36;;;;;;;15.97;12.50;;;11.90;99.90;;;;;;10459417;28;20256;-90
2022/11/13 11:22:15;;;;;;;14.97;11.33;;;12.30;99.90;;;;;;10086107;28;10000365;-90
2022/11/13 11:27:49;;;;;;;20.97;12.20;;;12.60;99.90;;;;;;10434907;28;20288;-90
2022/11/13 11:33:18;;;;;;;22.17;14.93;;;12.40;99.90;;;;;;10452151;28;20714;-90
2022/11/13 11:38:45;;;;;;;21.10;15.10;;;13.30;99.90;;;;;;10450246;28;20229;-90
2022/11/13 11:44:15;;;;;;;22.03;12.33;;;;;;;;;;10434425;28;20234;-90
2022/11/13 11:49:35;;;;;;;14.67;8.97;;;13.50;99.90;;;;;;10426320;28;20246;-90
2022/11/13 11:54:57;;;;;;;17.27;9.13;;;12.60;99.90;;;;;;10431898;28;20255;-91
2022/11/13 12:00:19;;;;;;;18.67;9.87;;;11.40;99.90;;;;;;10447310;28;20252;-90
2022/11/13 12:05:44;;;;;;;22.10;10.97;;;11.60;99.90;;;;;;10438921;28;20656;-91
2022/11/13 12:11:27;;;;;;;21.73;13.53;;;11.00;99.90;;;;;;10436441;28;20239;-90
2022/11/13 12:17:12;;;;;;;28.23;14.90;;;11.50;99.90;;;;;;10434990;28;20715;-90
2022/11/13 12:23:18;;;;;;;23.17;13.67;;;11.40;99.90;;;;;;10433693;28;20604;-89
2022/11/13 12:28:49;;;;;;;24.80;14.30;;;11.80;99.90;;;;;;10432438;28;20237;-90
2022/11/13 12:34:36;;;;;;;27.27;15.47;;;10.30;99.90;;;;;;10417084;28;20242;-91
2022/11/13 12:40:18;;;;;;;27.73;15.63;;;9.80;99.90;;;;;;10442632;28;20223;-90
2022/11/13 12:45:51;;;;;;;42.50;20.40;;;9.20;99.90;;;;;;10448165;28;20238;-90
2022/11/13 12:51:15;;;;;;;38.93;20.07;;;8.90;99.90;;;;;;10434323;28;20234;-90
2022/11/13 12:56:36;;;;;;;39.97;20.20;;;8.30;99.90;;;;;;10451251;28;20258;-90
2022/11/13 13:02:06;;;;;;;30.23;16.40;;;8.70;99.90;;;;;;10451097;28;20230;-90
2022/11/13 13:07:49;;;;;;;43.33;21.03;;;9.00;99.90;;;;;;10453696;28;20219;-90
2022/11/13 13:13:28;;;;;;;141.53;77.07;;;8.90;99.90;;;;;;10440492;28;20759;-90
2022/11/13 13:18:50;;;;;;;47.17;25.27;;;8.60;99.90;;;;;;10438256;28;20231;-90
2022/11/13 13:24:28;;;;;;;46.10;23.73;;;8.10;99.90;;;;;;10442517;28;20230;-90
2022/11/13 13:29:49;;;;;;;30.77;19.07;;;8.40;99.90;;;;;;10446099;28;20238;-91
2022/11/13 13:35:23;;;;;;;41.83;22.60;;;8.90;99.90;;;;;;10447284;28;20258;-90
2022/11/13 13:41:35;;;;;;;35.77;19.50;;;9.30;99.90;;;;;;10457919;28;20222;-91
2022/11/13 13:46:57;;;;;;;32.00;19.80;;;10.00;99.90;;;;;;10399611;28;20627;-90
2022/11/13 13:52:28;;;;;;;38.23;21.57;;;9.80;99.90;;;;;;10439159;28;20699;-90
2022/11/13 13:57:50;;;;;;;161.47;80.93;;;10.50;99.90;;;;;;10455011;28;20821;-91
2022/11/13 14:03:20;;;;;;;104.80;57.83;;;8.50;99.90;;;;;;10453838;28;20358;-91
2022/11/13 14:08:41;;;;;;;75.30;39.83;;;7.90;99.90;;;;;;10439773;28;20230;-91
2022/11/13 14:14:22;;;;;;;60.73;27.10;;;8.30;99.90;;;;;;10431916;28;20230;-91
2022/11/13 14:19:49;;;;;;;56.27;26.43;;;8.00;99.90;;;;;;10460637;28;20231;-90
2022/11/13 14:25:28;;;;;;;57.03;26.17;;;8.30;99.90;;;;;;10453074;28;20245;-91
2022/11/13 14:30:56;;;;;;;72.63;31.10;;;8.10;99.90;;;;;;10450220;28;20723;-91
2022/11/13 14:36:26;;;;;;;71.03;28.67;;;7.80;99.90;;;;;;10442305;28;20254;-91
2022/11/13 14:41:57;;;;;;;145.97;63.03;;;8.00;99.90;;;;;;10442207;28;20234;-90
2022/11/13 14:47:36;;;;;;;88.90;39.20;;;7.60;99.90;;;;;;10451871;28;20684;-90
2022/11/13 14:53:06;;;;;;;86.23;35.50;;;8.10;99.90;;;;;;10448683;28;20234;-91
2022/11/13 14:58:28;;;;;;;134.63;58.80;;;8.50;99.90;;;;;;10426204;28;20657;-91
2022/11/13 15:03:51;;;;;;;88.57;36.67;;;8.00;99.90;;;;;;10462456;28;20623;-90
2022/11/13 15:09:15;;;;;;;79.67;34.43;;;7.70;99.90;;;;;;10463385;28;20446;-91
2022/11/13 15:14:38;;;;;;;92.33;38.00;;;7.90;99.90;;;;;;10442362;28;20265;-91
2022/11/13 15:19:59;;;;;;;102.57;40.00;;;8.50;99.90;;;;;;10414238;28;20226;-90
2022/11/13 15:25:26;;;;;;;96.43;41.23;;;7.60;99.90;;;;;;10438926;28;20246;-90
2022/11/13 15:30:47;;;;;;;73.20;28.60;;;7.90;99.90;;;;;;10447312;28;20245;-90
2022/11/13 15:36:09;;;;;;;66.30;28.70;;;7.60;99.90;;;;;;10462712;28;20262;-90
2022/11/13 15:41:32;;;;;;;65.30;29.03;;;8.00;99.90;;;;;;10456016;28;20605;-91
2022/11/13 15:46:53;;;;;;;58.27;24.83;;;8.00;99.90;;;;;;10442505;28;20623;-91
2022/11/13 15:52:14;;;;;;;50.00;22.50;;;7.40;99.90;;;;;;10435186;28;20230;-91
2022/11/13 15:57:36;;;;;;;41.43;21.07;;;8.30;99.90;;;;;;10436526;28;20726;-91
2022/11/13 16:02:57;;;;;;;32.03;17.07;;;9.20;99.90;;;;;;10446143;28;20226;-91
2022/11/13 16:08:18;;;;;;;31.40;16.70;;;8.40;99.90;;;;;;10460716;28;20624;-90
2022/11/13 16:13:39;;;;;;;33.00;17.37;;;8.40;99.90;;;;;;10450348;28;20226;-91
2022/11/13 16:19:00;;;;;;;41.13;20.50;;;7.80;99.90;;;;;;10446232;28;20253;-90
2022/11/13 16:24:22;;;;;;;40.20;18.13;;;7.60;99.90;;;;;;10445704;28;20234;-91
2022/11/13 16:29:44;;;;;;;36.60;18.10;;;7.60;99.90;;;;;;10434085;28;20776;-90
2022/11/13 16:35:05;;;;;;;41.90;20.70;;;8.30;99.90;;;;;;10436878;28;20226;-91
2022/11/13 16:40:26;;;;;;;38.43;20.53;;;8.50;99.90;;;;;;10451313;28;20227;-90
2022/11/13 16:45:48;;;;;;;40.87;21.47;;;8.30;99.90;;;;;;10451551;28;20695;-91
2022/11/13 16:51:08;;;;;;;46.13;25.10;;;7.90;99.90;;;;;;10414374;28;20615;-91
2022/11/13 16:56:29;;;;;;;36.57;19.13;;;7.40;99.90;;;;;;10448543;28;20258;-91
2022/11/13 17:01:54;;;;;;;33.20;17.93;;;7.30;99.90;;;;;;10455693;28;20238;-90
2022/11/13 17:07:15;;;;;;;34.87;18.53;;;7.60;99.90;;;;;;10458861;28;20234;-91
2022/11/13 17:12:37;;;;;;;39.80;19.10;;;7.40;99.90;;;;;;10451857;28;20699;-90
2022/11/13 17:17:58;;;;;;;37.77;19.87;;;7.50;99.90;;;;;;10443794;28;20254;-92
2022/11/13 17:23:20;;;;;;;30.60;17.87;;;7.90;99.90;;;;;;10458616;28;20660;-96
2022/11/13 17:28:41;;;;;;;35.70;18.23;;;10.20;99.90;;;;;;10447321;28;20194;-96
2022/11/13 17:34:02;;;;;;;32.00;17.67;;;8.10;99.90;;;;;;10104427;28;10000222;-96
2022/11/13 17:39:23;;;;;;;42.73;25.57;;;7.60;99.90;;;;;;10453603;28;20256;-96
2022/11/13 17:44:44;;;;;;;70.30;34.77;;;8.10;99.90;;;;;;10470668;28;20668;-96
2022/11/13 17:50:08;;;;;;;50.90;25.17;;;8.50;99.90;;;;;;10454637;28;20550;-96
2022/11/13 17:55:29;;;;;;;49.10;24.57;;;8.50;99.90;;;;;;10450975;28;20222;-96
2022/11/13 18:00:51;;;;;;;32.90;18.27;;;8.10;99.90;;;;;;10456053;28;20207;-96
2022/11/13 18:06:18;;;;;;;39.03;19.17;;;8.00;99.90;;;;;;10453354;28;20215;-95
2022/11/13 18:11:40;;;;;;;39.17;20.10;;;7.30;99.90;;;;;;10469813;28;20211;-95
2022/11/13 18:17:01;;;;;;;42.43;20.53;;;7.70;99.90;;;;;;10471176;28;20234;-95
2022/11/13 18:22:22;;;;;;;43.67;21.43;;;7.70;99.90;;;;;;10470258;28;20206;-95
2022/11/13 18:27:43;;;;;;;44.13;24.30;;;7.60;99.90;;;;;;10452235;28;20567;-95
2022/11/13 18:33:05;;;;;;;43.70;23.60;;;7.80;99.90;;;;;;10473496;28;20198;-96
2022/11/13 18:38:27;;;;;;;46.93;23.40;;;8.00;99.90;;;;;;10414095;28;20224;-96
2022/11/13 18:43:49;;;;;;;46.83;23.53;;;8.70;99.90;;;;;;10440550;28;20199;-96
2022/11/13 18:49:11;;;;;;;51.90;26.37;;;7.20;99.90;;;;;;10474648;28;20199;-95
2022/11/13 18:54:32;;;;;;;55.27;27.03;;;6.90;99.90;;;;;;10479095;28;20215;-96
2022/11/13 18:59:53;;;;;;;60.50;29.40;;;6.80;99.90;;;;;;10461176;28;20227;-96
2022/11/13 19:05:14;;;;;;;56.57;28.70;;;6.60;99.90;;;;;;10469973;28;20194;-96
2022/11/13 19:10:35;;;;;;;62.47;28.37;;;6.80;99.90;;;;;;10469533;28;20195;-96
2022/11/13 19:15:56;;;;;;;62.73;29.87;;;6.50;99.90;;;;;;10456134;28;20226;-96
2022/11/13 19:21:18;;;;;;;71.63;31.47;;;6.80;99.90;;;;;;10437630;28;20195;-96
2022/11/13 19:26:41;;;;;;;68.57;32.13;;;6.50;99.90;;;;;;10457555;28;20210;-96
2022/11/13 19:32:02;;;;;;;78.83;34.67;;;6.40;99.90;;;;;;10478797;28;20210;-96
2022/11/13 19:37:23;;;;;;;76.07;33.13;;;7.90;99.90;;;;;;10457210;28;20218;-92
2022/11/13 19:42:44;;;;;;;85.30;36.67;;;8.40;99.90;;;;;;10446260;28;20668;-92
2022/11/13 19:48:05;;;;;;;88.57;40.17;;;7.30;99.90;;;;;;10455631;28;20206;-94
2022/11/13 19:53:26;;;;;;;80.90;36.27;;;6.70;99.90;;;;;;10451536;28;20202;-92
2022/11/13 19:58:49;;;;;;;112.07;44.87;;;6.60;99.90;;;;;;10100479;28;10000635;-91
2022/11/13 20:04:11;;;;;;;86.73;37.80;;;6.70;99.90;;;;;;10461387;28;20314;-90
2022/11/13 20:09:33;;;;;;;78.43;35.70;;;7.10;99.90;;;;;;10448173;28;20213;-91
2022/11/13 20:14:55;;;;;;;86.30;38.03;;;7.20;99.90;;;;;;10439851;28;20226;-91
2022/11/13 20:20:16;;;;;;;59.80;29.33;;;6.80;99.90;;;;;;10448044;28;20238;-91
2022/11/13 20:25:38;;;;;;;86.53;37.87;;;7.20;99.90;;;;;;10418874;28;20234;-91
2022/11/13 20:31:13;;;;;;;73.87;32.33;;;7.70;99.90;;;;;;10448401;28;20230;-91
2022/11/13 20:36:34;;;;;;;67.50;30.17;;;6.90;99.90;;;;;;10439688;28;20254;-91
2022/11/13 20:41:54;;;;;;;70.93;32.03;;;7.20;99.90;;;;;;10434727;28;20231;-91
2022/11/13 20:47:16;;;;;;;65.43;32.53;;;8.00;99.90;;;;;;10448384;28;20230;-92
2022/11/13 20:52:37;;;;;;;60.00;28.40;;;7.70;99.90;;;;;;10456279;28;20235;-91
2022/11/13 20:57:57;;;;;;;62.67;29.40;;;9.50;99.90;;;;;;10444993;28;20256;-92
2022/11/13 21:03:18;;;;;;;67.50;31.37;;;11.40;99.90;;;;;;10451597;28;20223;-88
2022/11/13 21:08:39;;;;;;;66.87;32.80;;;7.60;99.90;;;;;;10433987;28;20606;-87
2022/11/13 21:14:01;;;;;;;64.23;30.63;;;9.10;99.90;;;;;;10446301;28;20231;-87
2022/11/13 21:19:23;;;;;;;66.30;30.00;;;9.40;99.90;;;;;;10445165;28;20247;-87
2022/11/13 21:24:44;;;;;;;65.37;32.63;;;10.00;99.90;;;;;;10451541;28;20948;-87
2022/11/13 21:30:06;;;;;;;54.63;25.53;;;8.80;99.90;;;;;;10463506;28;20226;-87
2022/11/13 21:35:27;;;;;;;61.77;31.30;;;10.80;99.90;;;;;;10440888;28;20243;-87
2022/11/13 21:41:20;;;;;;;58.50;28.80;;;9.50;99.90;;;;;;10443824;28;20231;-87
2022/11/13 21:46:44;;;;;;;63.53;30.30;;;9.70;99.90;;;;;;10448144;28;20231;-87
2022/11/13 21:52:05;;;;;;;65.90;32.30;;;9.40;99.90;;;;;;10453769;28;20231;-87
2022/11/13 21:57:26;;;;;;;67.30;32.77;;;8.50;99.90;;;;;;10436691;28;20250;-87
2022/11/13 22:02:47;;;;;;;55.07;27.57;;;8.30;99.90;;;;;;10438239;28;20231;-86
2022/11/13 22:08:09;;;;;;;66.83;32.23;;;9.60;99.90;;;;;;10454693;28;20234;-87
2022/11/13 22:13:30;;;;;;;63.90;30.77;;;8.30;99.90;;;;;;10446937;28;20242;-87
2022/11/13 22:18:53;;;;;;;59.33;26.07;;;7.70;99.90;;;;;;10448177;28;20254;-87
2022/11/13 22:24:14;;;;;;;49.83;24.53;;;8.20;99.90;;;;;;10435921;28;20234;-86
2022/11/13 22:29:35;;;;;;;64.30;31.00;;;9.50;99.90;;;;;;10463555;28;20712;-87
2022/11/13 22:34:56;;;;;;;56.97;28.47;;;8.40;99.90;;;;;;10445720;28;20231;-86
2022/11/13 22:40:17;;;;;;;63.67;30.80;;;11.20;99.90;;;;;;10447147;28;20250;-87
2022/11/13 22:45:38;;;;;;;66.10;32.23;;;11.30;99.90;;;;;;10454976;28;20226;-87
2022/11/13 22:51:15;;;;;;;64.00;33.13;;;12.00;99.90;;;;;;10449117;28;20238;-87
2022/11/13 22:56:37;;;;;;;57.27;29.17;;;11.30;99.90;;;;;;10439926;28;20263;-86
2022/11/13 23:01:58;;;;;;;59.00;30.73;;;12.10;99.90;;;;;;10452891;28;20228;-87
2022/11/13 23:07:20;;;;;;;53.73;27.23;;;11.40;99.90;;;;;;10430639;28;20243;-87
2022/11/13 23:12:41;;;;;;;54.63;27.77;;;11.20;99.90;;;;;;10429702;28;20234;-87
2022/11/13 23:18:03;;;;;;;55.97;27.33;;;12.60;99.90;;;;;;10420708;28;20639;-87
2022/11/13 23:23:30;;;;;;;52.50;27.57;;;11.40;99.90;;;;;;10412976;28;20200;-87
2022/11/13 23:28:51;;;;;;;48.57;26.40;;;12.80;99.90;;;;;;10440600;28;20247;-87
2022/11/13 23:34:12;;;;;;;67.97;32.23;;;12.20;99.90;;;;;;10443882;28;20232;-87
2022/11/13 23:39:46;;;;;;;62.03;31.37;;;13.30;99.90;;;;;;10459743;28;20246;-87
2022/11/13 23:45:08;;;;;;;68.83;32.67;;;11.80;99.90;;;;;;10432559;28;20605;-87
2022/11/13 23:50:29;;;;;;;71.53;33.43;;;10.50;99.90;;;;;;10447701;28;20701;-87
2022/11/13 23:55:50;;;;;;;67.50;34.70;;;9.80;99.90;;;;;;10425882;28;20262;-87
